Time;durP1;ratioP1;P1;durP2;ratioP2;P2;SDS_P1;SDS_P2;PMS_P1;PMS_P2;Temp;Humidity;BMP_temperature;BMP_pressure;BME280_temperature;BME280_humidity;BME280_pressure;Samples;Min_cycle;Max_cycle;Signal;HPM_P1;HPM_P2
2021/05/01 15:40:56;;;;;;;3.15;1.90;;;22.00;48.80;;;;;;5002172;22;20092;-49
2021/05/01 15:43:23;;;;;;;7.35;2.50;;;22.20;48.50;;;;;;5039317;28;20044;-51
2021/05/01 15:45:50;;;;;;;6.82;2.70;;;22.30;48.40;;;;;;5034769;28;20044;-46
2021/05/01 15:53:27;;;;;;;12.50;5.05;;;22.10;49.20;;;;;;5166567;22;20104;-36
2021/05/01 15:55:54;;;;;;;11.20;4.10;;;21.90;48.60;;;;;;5022705;28;20060;-37
2021/05/01 15:58:20;;;;;;;11.77;3.30;;;21.80;48.50;;;;;;5026236;28;20435;-35
2021/05/01 16:00:46;;;;;;;5.75;3.20;;;21.70;48.60;;;;;;5047383;28;20052;-35
2021/05/01 16:03:13;;;;;;;6.10;2.92;;;21.70;48.80;;;;;;5046156;28;20037;-35
2021/05/01 16:05:39;;;;;;;5.35;2.72;;;21.70;48.80;;;;;;5032844;28;20068;-46
2021/05/01 16:08:06;;;;;;;6.35;2.40;;;21.70;48.70;;;;;;5042964;28;20036;-35
2021/05/01 16:10:31;;;;;;;5.68;2.50;;;21.70;48.60;;;;;;5033571;28;20045;-35
2021/05/01 16:12:58;;;;;;;8.07;3.00;;;21.70;48.70;;;;;;5051875;28;20040;-35
2021/05/01 16:15:26;;;;;;;4.25;2.90;;;21.80;48.70;;;;;;5042869;28;20036;-35
2021/05/01 16:17:52;;;;;;;7.25;2.63;;;21.80;48.60;;;;;;5051619;28;20020;-38
2021/05/01 16:20:20;;;;;;;3.05;2.65;;;21.70;48.50;;;;;;5054207;28;20033;-35
2021/05/01 16:22:49;;;;;;;6.50;2.55;;;21.80;48.60;;;;;;5044072;28;20033;-37
2021/05/01 16:25:16;;;;;;;11.98;3.13;;;21.80;48.70;;;;;;5050846;28;20036;-35
2021/05/01 16:27:43;;;;;;;7.75;2.25;;;21.70;48.60;;;;;;5034194;28;20021;-52
2021/05/01 16:30:11;;;;;;;6.55;2.88;;;21.70;48.60;;;;;;5046037;28;20029;-35
2021/05/01 16:32:40;;;;;;;5.55;2.25;;;21.90;49.10;;;;;;5048280;28;20021;-47
2021/05/01 16:35:10;;;;;;;3.63;2.33;;;21.90;48.90;;;;;;5036040;28;20112;-48
2021/05/01 16:37:37;;;;;;;8.05;2.75;;;22.00;49.00;;;;;;5036337;28;20071;-48
2021/05/01 16:40:07;;;;;;;4.88;2.40;;;21.90;49.50;;;;;;5035277;28;20033;-47
2021/05/01 16:42:34;;;;;;;7.32;2.78;;;21.90;49.70;;;;;;5018210;28;20120;-48
2021/05/01 16:45:00;;;;;;;7.53;2.60;;;21.90;49.70;;;;;;5015841;28;20040;-50
2021/05/01 16:47:26;;;;;;;4.82;2.17;;;21.90;49.80;;;;;;5048115;28;20029;-47
2021/05/01 16:49:52;;;;;;;5.07;2.20;;;21.90;49.90;;;;;;5044487;28;20076;-50
2021/05/01 16:52:19;;;;;;;6.00;2.30;;;21.90;49.90;;;;;;5027760;28;20054;-48
2021/05/01 16:54:44;;;;;;;4.63;2.45;;;21.90;50.00;;;;;;5015510;28;20037;-56
2021/05/01 16:57:10;;;;;;;2.92;2.30;;;21.90;50.10;;;;;;5033127;28;20021;-49
2021/05/01 16:59:37;;;;;;;6.00;2.90;;;22.00;49.90;;;;;;5033389;28;20032;-35
2021/05/01 17:02:03;;;;;;;5.25;2.15;;;21.90;50.10;;;;;;5032583;28;20041;-36
2021/05/01 17:04:30;;;;;;;9.10;2.60;;;22.00;49.70;;;;;;5028197;28;20047;-35
2021/05/01 17:06:55;;;;;;;4.40;2.17;;;22.00;49.60;;;;;;5025718;28;20037;-37
2021/05/01 17:09:21;;;;;;;7.72;1.98;;;22.00;49.20;;;;;;5027439;28;20026;-37
2021/05/01 17:11:47;;;;;;;8.68;2.40;;;21.90;49.10;;;;;;5023302;28;20025;-40
2021/05/01 17:14:13;;;;;;;5.30;2.55;;;21.90;50.90;;;;;;5029290;28;20037;-37
2021/05/01 17:16:41;;;;;;;7.45;2.72;;;21.90;49.50;;;;;;5025363;28;20142;-37
2021/05/01 17:19:08;;;;;;;8.60;2.55;;;21.90;49.90;;;;;;5032938;28;20113;-37
2021/05/01 17:21:35;;;;;;;5.68;2.30;;;21.80;50.30;;;;;;5035308;28;20021;-36
2021/05/01 17:24:03;;;;;;;6.57;2.53;;;21.80;50.40;;;;;;5034920;28;20025;-36
2021/05/01 17:26:31;;;;;;;6.85;2.85;;;21.80;50.40;;;;;;5035370;28;20080;-53
2021/05/01 17:28:59;;;;;;;5.82;2.20;;;21.90;50.70;;;;;;5033738;28;20020;-51
2021/05/01 17:31:25;;;;;;;5.80;2.35;;;21.80;50.40;;;;;;5030998;28;20083;-46
2021/05/01 17:33:54;;;;;;;5.63;2.25;;;21.80;50.50;;;;;;5032776;28;20025;-47
2021/05/01 17:36:21;;;;;;;6.65;2.30;;;21.80;50.70;;;;;;5032450;28;20387;-36
2021/05/01 17:38:49;;;;;;;4.22;1.90;;;21.90;50.80;;;;;;5032729;28;20071;-49
2021/05/01 17:41:16;;;;;;;4.45;2.53;;;21.90;50.70;;;;;;5030680;28;20040;-36
2021/05/01 17:44:05;;;;;;;4.68;2.30;;;21.90;50.60;;;;;;5033735;28;20072;-36
2021/05/01 17:46:32;;;;;;;15.82;4.45;;;21.90;51.10;;;;;;4977880;28;20122;-36
2021/05/01 17:49:03;;;;;;;4.22;2.25;;;21.80;50.90;;;;;;4970841;28;20043;-39
2021/05/01 17:51:30;;;;;;;7.78;2.38;;;21.80;50.90;;;;;;4963251;28;20542;-36
2021/05/01 17:53:57;;;;;;;4.60;2.08;;;21.80;50.90;;;;;;4975364;28;20073;-39
2021/05/01 17:56:24;;;;;;;5.57;2.40;;;21.90;51.00;;;;;;4982198;28;20273;-36
2021/05/01 17:58:51;;;;;;;7.45;2.10;;;21.90;50.80;;;;;;4971770;28;20035;-36
2021/05/01 18:01:19;;;;;;;7.25;2.33;;;21.90;51.60;;;;;;4972526;28;20030;-36
2021/05/01 18:03:48;;;;;;;3.72;2.17;;;21.90;50.90;;;;;;4974793;28;20588;-36
2021/05/01 18:06:17;;;;;;;6.50;2.40;;;21.90;51.90;;;;;;4992412;28;20036;-35
2021/05/01 18:08:44;;;;;;;9.05;2.67;;;22.00;51.10;;;;;;4984440;28;20031;-35
2021/05/01 18:11:12;;;;;;;6.50;2.25;;;22.00;51.50;;;;;;4965532;28;20030;-36
2021/05/01 18:13:40;;;;;;;8.20;2.03;;;22.00;51.10;;;;;;4983694;28;20041;-35
2021/05/01 18:16:05;;;;;;;4.45;2.13;;;22.00;51.00;;;;;;4985559;28;20035;-35
2021/05/01 18:18:31;;;;;;;10.10;2.33;;;22.00;51.70;;;;;;4965344;28;20033;-35
2021/05/01 18:20:57;;;;;;;4.00;2.08;;;21.90;49.70;;;;;;4976949;28;20117;-35
2021/05/01 18:23:23;;;;;;;6.50;2.42;;;21.80;49.90;;;;;;5006944;28;20037;-35
2021/05/01 18:25:55;;;;;;;8.00;2.35;;;21.80;49.80;;;;;;5025045;28;20038;-45
2021/05/01 18:28:21;;;;;;;9.70;2.70;;;21.80;50.20;;;;;;5029747;28;20074;-35
2021/05/01 18:30:46;;;;;;;6.30;2.00;;;21.70;50.50;;;;;;5014069;28;20025;-50
2021/05/01 18:33:12;;;;;;;8.05;3.45;;;21.80;50.90;;;;;;5023069;28;20679;-36
2021/05/01 18:35:41;;;;;;;5.70;2.33;;;21.70;50.80;;;;;;5023753;28;20030;-35
2021/05/01 18:38:08;;;;;;;9.27;2.20;;;21.70;50.60;;;;;;5026846;28;20037;-35
2021/05/01 18:40:34;;;;;;;5.38;2.45;;;21.70;51.20;;;;;;5020868;28;20112;-35
2021/05/01 18:43:00;;;;;;;5.15;2.28;;;21.70;51.20;;;;;;5011709;28;20471;-40
2021/05/01 18:45:26;;;;;;;9.20;2.25;;;21.70;51.50;;;;;;5021611;28;20390;-35
2021/05/01 18:47:52;;;;;;;9.73;3.40;;;21.70;51.30;;;;;;5012337;28;20060;-35
2021/05/01 18:50:18;;;;;;;8.20;3.00;;;21.70;51.60;;;;;;5013295;28;20056;-35
2021/05/01 18:52:43;;;;;;;3.97;2.40;;;21.70;51.90;;;;;;5032858;28;20580;-35
2021/05/01 18:55:11;;;;;;;6.18;2.67;;;21.70;51.90;;;;;;5027948;28;20477;-35
2021/05/01 18:57:38;;;;;;;4.47;2.25;;;21.70;51.70;;;;;;5047903;28;20128;-35
2021/05/01 19:00:06;;;;;;;5.10;2.78;;;21.70;51.90;;;;;;5010670;28;20133;-34
2021/05/01 19:02:32;;;;;;;7.88;2.47;;;21.70;52.00;;;;;;5039966;28;20029;-34
2021/05/01 19:04:57;;;;;;;6.65;2.78;;;21.70;52.10;;;;;;5043966;28;20100;-36
2021/05/01 19:07:24;;;;;;;5.03;2.55;;;21.70;52.30;;;;;;5041206;28;20055;-36
2021/05/01 19:09:50;;;;;;;7.55;2.50;;;21.60;52.30;;;;;;5044856;28;20024;-36
2021/05/01 19:12:20;;;;;;;8.45;2.80;;;21.70;52.40;;;;;;5026038;28;20494;-38
2021/05/01 19:14:47;;;;;;;3.80;2.28;;;21.70;52.40;;;;;;5027125;28;20120;-51
2021/05/01 19:17:16;;;;;;;5.93;2.90;;;21.60;52.30;;;;;;5012842;28;20056;-40
2021/05/01 19:19:45;;;;;;;7.32;2.53;;;21.60;51.80;;;;;;5039080;28;20559;-35
2021/05/01 19:22:12;;;;;;;5.22;2.10;;;21.60;51.90;;;;;;5007390;28;20052;-36
2021/05/01 19:24:40;;;;;;;22.35;2.88;;;21.60;52.60;;;;;;5031921;28;20377;-35
2021/05/01 19:27:06;;;;;;;12.98;2.65;;;21.60;52.20;;;;;;5042774;28;20664;-35
2021/05/01 19:29:32;;;;;;;15.38;2.38;;;21.60;51.90;;;;;;5029564;28;20056;-41
2021/05/01 19:31:59;;;;;;;8.35;2.75;;;21.60;51.50;;;;;;5024621;28;20067;-38
2021/05/01 19:34:25;;;;;;;8.77;3.20;;;21.60;51.60;;;;;;5011925;28;20030;-37
2021/05/01 19:36:52;;;;;;;7.63;2.90;;;21.60;52.60;;;;;;5017342;28;21338;-45
2021/05/01 19:39:18;;;;;;;10.50;2.83;;;21.60;52.70;;;;;;5047439;28;20111;-35
2021/05/01 19:41:44;;;;;;;6.55;2.72;;;21.50;52.60;;;;;;5039576;28;20101;-38
2021/05/01 19:44:12;;;;;;;7.57;2.60;;;21.50;52.60;;;;;;5042272;28;20029;-39
2021/05/01 19:46:38;;;;;;;8.30;2.40;;;21.50;52.60;;;;;;5043734;28;20029;-35
2021/05/01 19:49:11;;;;;;;7.88;2.58;;;21.40;52.60;;;;;;5045483;28;20067;-35
2021/05/01 19:51:36;;;;;;;7.07;2.85;;;21.40;52.50;;;;;;5043782;28;20021;-35
2021/05/01 19:54:03;;;;;;;9.07;2.70;;;21.40;52.40;;;;;;5017420;28;20033;-36
2021/05/01 19:56:33;;;;;;;8.23;3.45;;;21.40;52.30;;;;;;5018368;28;20044;-35
2021/05/01 19:58:58;;;;;;;10.73;3.75;;;21.40;52.20;;;;;;5014244;28;20103;-35
2021/05/01 20:01:24;;;;;;;12.65;4.00;;;21.50;52.40;;;;;;5027043;28;20069;-35
2021/05/01 20:03:50;;;;;;;11.95;3.03;;;21.50;53.00;;;;;;5025390;28;20381;-44
2021/05/01 20:06:16;;;;;;;13.57;3.25;;;21.50;52.40;;;;;;5023123;28;20389;-35
2021/05/01 20:08:44;;;;;;;16.45;3.42;;;21.40;52.40;;;;;;5022610;28;20030;-36
2021/05/01 20:11:12;;;;;;;7.32;2.90;;;21.40;52.30;;;;;;5011907;28;20041;-35
2021/05/01 20:13:39;;;;;;;10.65;3.53;;;21.40;52.20;;;;;;5022064;28;20057;-35
2021/05/01 20:16:06;;;;;;;9.00;3.40;;;21.40;52.20;;;;;;5018854;28;20034;-35
2021/05/01 20:18:33;;;;;;;9.35;3.28;;;21.40;52.20;;;;;;5022274;28;20104;-36
2021/05/01 20:21:00;;;;;;;11.85;2.90;;;21.40;52.10;;;;;;5020471;28;20030;-35
2021/05/01 20:23:27;;;;;;;7.20;3.40;;;21.40;52.10;;;;;;5001783;28;20033;-35
2021/05/01 20:25:53;;;;;;;11.70;3.50;;;21.40;52.10;;;;;;5022576;28;20026;-37
2021/05/01 20:28:19;;;;;;;9.55;3.63;;;21.50;52.10;;;;;;5024091;28;20036;-36
2021/05/01 20:30:45;;;;;;;11.02;3.35;;;21.40;52.10;;;;;;5019420;28;20396;-51
2021/05/01 20:33:11;;;;;;;7.88;3.50;;;21.40;52.10;;;;;;5024091;28;20033;-35
2021/05/01 20:35:37;;;;;;;13.75;3.20;;;21.40;52.10;;;;;;5016926;28;20028;-38
2021/05/01 20:38:03;;;;;;;14.63;3.72;;;21.40;52.10;;;;;;4997146;28;20176;-38
2021/05/01 20:40:30;;;;;;;9.65;3.40;;;21.40;52.00;;;;;;5020617;28;20045;-39
2021/05/01 20:42:56;;;;;;;8.02;2.95;;;21.50;52.10;;;;;;5022242;28;20363;-40
2021/05/01 20:45:22;;;;;;;6.32;3.20;;;21.40;52.00;;;;;;5007285;28;20041;-36
2021/05/01 20:47:48;;;;;;;9.30;3.00;;;21.40;51.90;;;;;;5025563;28;20359;-49
2021/05/01 20:50:15;;;;;;;7.00;3.00;;;21.50;52.00;;;;;;5017014;28;20025;-35
2021/05/01 20:52:41;;;;;;;6.68;3.45;;;21.50;51.90;;;;;;5031319;28;20049;-42
2021/05/01 20:55:09;;;;;;;8.18;3.45;;;21.50;51.90;;;;;;5045408;28;20091;-40
2021/05/01 20:57:35;;;;;;;6.00;3.50;;;21.50;51.90;;;;;;5046016;28;20104;-38
2021/05/01 21:00:03;;;;;;;20.95;4.00;;;21.50;52.50;;;;;;5051784;28;20080;-35
2021/05/01 21:02:28;;;;;;;6.28;3.55;;;21.50;51.70;;;;;;5030022;28;20044;-35
2021/05/01 21:04:54;;;;;;;5.80;2.65;;;21.50;51.70;;;;;;5050279;28;20024;-38
2021/05/01 21:07:20;;;;;;;4.28;2.55;;;21.50;51.70;;;;;;5051479;28;20086;-35
2021/05/01 21:09:45;;;;;;;7.80;2.83;;;21.50;51.70;;;;;;5053092;28;20025;-49
2021/05/01 21:12:11;;;;;;;7.95;2.92;;;21.50;51.70;;;;;;5048946;28;20104;-35
2021/05/01 21:14:37;;;;;;;7.15;3.20;;;21.50;51.70;;;;;;5053429;28;20473;-35
2021/05/01 21:17:02;;;;;;;8.75;2.67;;;21.50;51.60;;;;;;5052370;28;20029;-35
2021/05/01 21:19:28;;;;;;;6.40;2.92;;;21.50;51.60;;;;;;5019551;28;20112;-35
2021/05/01 21:21:55;;;;;;;4.55;2.47;;;21.50;52.20;;;;;;5052615;28;20043;-36
2021/05/01 21:24:21;;;;;;;5.47;2.58;;;21.50;51.50;;;;;;5053385;28;20029;-35
2021/05/01 21:26:47;;;;;;;5.35;2.83;;;21.50;51.50;;;;;;5049236;28;20473;-50
2021/05/01 21:29:14;;;;;;;5.82;2.95;;;21.50;51.50;;;;;;5052847;28;20112;-35
2021/05/01 21:31:39;;;;;;;6.47;2.80;;;21.50;51.50;;;;;;5035544;28;20025;-35
2021/05/01 21:34:05;;;;;;;5.75;3.05;;;21.50;51.50;;;;;;5051646;28;20505;-35
2021/05/01 21:36:32;;;;;;;6.18;2.70;;;21.50;51.40;;;;;;5034861;28;20036;-46
2021/05/01 21:38:58;;;;;;;4.68;2.40;;;21.50;51.40;;;;;;5046871;28;20055;-37
2021/05/01 21:41:24;;;;;;;5.50;2.33;;;21.50;51.40;;;;;;5048440;28;20033;-36
2021/05/01 21:43:50;;;;;;;3.75;2.50;;;21.50;51.40;;;;;;5051067;28;20036;-48
2021/05/01 21:46:16;;;;;;;4.13;2.50;;;21.60;51.40;;;;;;5052381;28;20040;-36
2021/05/01 21:48:43;;;;;;;6.00;2.90;;;21.60;51.40;;;;;;5052565;28;20469;-35
2021/05/01 21:51:10;;;;;;;3.90;2.30;;;21.50;51.30;;;;;;5052063;28;20040;-39
2021/05/01 21:53:35;;;;;;;3.42;2.15;;;21.50;51.30;;;;;;5051036;28;20045;-35
2021/05/01 21:56:01;;;;;;;5.20;2.53;;;21.50;51.30;;;;;;5015741;28;20039;-35
2021/05/01 21:58:27;;;;;;;4.63;2.13;;;21.60;51.30;;;;;;5034247;28;20026;-35
2021/05/01 22:00:57;;;;;;;4.25;2.40;;;21.60;51.30;;;;;;5036903;28;20083;-35
2021/05/01 22:03:25;;;;;;;3.13;2.20;;;21.50;51.20;;;;;;5043231;28;20107;-43
2021/05/01 22:05:52;;;;;;;4.13;2.13;;;21.50;51.20;;;;;;5044877;28;20024;-38
2021/05/01 22:08:20;;;;;;;3.50;2.72;;;21.60;51.20;;;;;;5031253;28;20059;-36
2021/05/01 22:10:47;;;;;;;3.92;2.42;;;21.50;51.20;;;;;;5039788;28;20370;-35
2021/05/01 22:13:12;;;;;;;4.13;2.30;;;21.60;51.20;;;;;;5040194;28;20108;-34
2021/05/01 22:15:38;;;;;;;4.63;2.50;;;21.60;51.10;;;;;;5037655;28;20111;-36
2021/05/01 22:18:04;;;;;;;4.43;2.17;;;21.50;51.10;;;;;;5029542;28;20025;-36
2021/05/01 22:20:47;;;;;;;4.80;2.28;;;21.60;51.10;;;;;;5026033;28;20524;-36
2021/05/01 22:25:58;;;;;;;3.70;1.95;;;21.60;51.00;;;;;;5046114;28;20155;-35
2021/05/01 22:28:27;;;;;;;4.88;2.65;;;21.60;51.10;;;;;;5051720;28;20163;-36
2021/05/01 22:30:53;;;;;;;3.92;2.10;;;21.60;51.00;;;;;;5033651;28;20477;-38
2021/05/01 22:33:20;;;;;;;3.00;2.20;;;21.50;50.90;;;;;;5051891;28;20098;-34
2021/05/01 22:35:46;;;;;;;3.92;2.22;;;21.60;50.90;;;;;;5030687;28;20089;-39
2021/05/01 22:38:11;;;;;;;3.92;2.72;;;21.60;50.90;;;;;;5048135;28;20560;-35
2021/05/01 22:40:37;;;;;;;3.25;2.20;;;21.60;50.90;;;;;;5033283;28;20068;-35
2021/05/01 22:43:05;;;;;;;4.63;2.45;;;21.60;50.90;;;;;;5050183;28;20473;-36
2021/05/01 22:45:30;;;;;;;3.42;2.30;;;21.60;50.90;;;;;;5040336;28;20025;-35
2021/05/01 22:47:58;;;;;;;3.97;2.22;;;21.60;50.80;;;;;;5033419;28;20032;-35
2021/05/01 22:50:24;;;;;;;3.17;1.92;;;21.60;50.70;;;;;;5035479;28;20045;-37
2021/05/01 22:52:50;;;;;;;3.42;2.08;;;21.60;50.80;;;;;;5040743;28;20050;-49
2021/05/01 22:55:16;;;;;;;5.93;2.50;;;21.60;50.70;;;;;;5013789;28;20034;-40
2021/05/01 22:57:41;;;;;;;3.67;2.50;;;21.50;50.70;;;;;;5032011;28;20075;-34
2021/05/01 23:00:14;;;;;;;3.47;2.45;;;21.60;50.70;;;;;;5012746;28;20044;-35
2021/05/01 23:02:41;;;;;;;3.78;1.88;;;21.50;50.70;;;;;;5027763;28;20030;-35
2021/05/01 23:05:10;;;;;;;4.90;2.50;;;21.60;50.60;;;;;;5009411;28;20458;-35
2021/05/01 23:07:37;;;;;;;3.10;2.13;;;21.50;50.60;;;;;;5031104;28;20048;-35
2021/05/01 23:10:05;;;;;;;3.30;2.13;;;21.60;50.70;;;;;;5012942;28;20083;-35
2021/05/01 23:12:32;;;;;;;3.60;2.60;;;21.50;50.50;;;;;;5031314;28;20049;-35
2021/05/01 23:14:58;;;;;;;2.55;2.20;;;21.60;50.70;;;;;;5010024;28;20601;-35
2021/05/01 23:17:27;;;;;;;6.18;2.53;;;21.50;50.50;;;;;;5013828;28;20029;-34
2021/05/01 23:19:58;;;;;;;2.72;2.20;;;21.50;50.50;;;;;;5022387;28;20029;-49
2021/05/01 23:22:24;;;;;;;4.40;2.40;;;21.60;50.50;;;;;;5031345;28;20029;-35
2021/05/01 23:24:51;;;;;;;3.75;2.33;;;21.60;50.40;;;;;;5030928;28;20025;-50
2021/05/01 23:27:18;;;;;;;4.03;2.50;;;21.50;50.50;;;;;;5031211;28;20030;-35
2021/05/01 23:29:47;;;;;;;3.13;2.13;;;21.50;50.50;;;;;;5013582;28;20026;-35
2021/05/01 23:32:14;;;;;;;4.60;2.33;;;21.50;50.50;;;;;;5030970;28;20036;-35
2021/05/01 23:34:42;;;;;;;2.70;1.98;;;21.50;50.40;;;;;;5031360;28;20037;-35
2021/05/01 23:37:12;;;;;;;4.07;2.67;;;21.50;50.40;;;;;;5030451;28;20021;-35
2021/05/01 23:39:38;;;;;;;3.88;2.30;;;21.50;50.30;;;;;;5030654;28;20175;-35
2021/05/01 23:42:05;;;;;;;6.25;2.30;;;21.50;50.30;;;;;;5030595;28;20056;-35
2021/05/01 23:44:31;;;;;;;4.53;2.30;;;21.50;50.30;;;;;;5030909;28;20037;-35
2021/05/01 23:46:57;;;;;;;5.15;2.45;;;21.50;50.20;;;;;;5030713;28;20036;-35
2021/05/01 23:49:24;;;;;;;5.13;3.13;;;21.50;50.20;;;;;;5031481;28;20041;-35
2021/05/01 23:51:50;;;;;;;5.13;2.47;;;21.50;50.20;;;;;;5015091;28;20057;-35
2021/05/01 23:54:16;;;;;;;3.08;2.00;;;21.50;50.20;;;;;;5032634;28;20485;-35
2021/05/01 23:56:43;;;;;;;2.33;2.05;;;21.50;50.20;;;;;;5049722;28;20042;-34
2021/05/01 23:59:12;;;;;;;3.10;2.08;;;21.50;50.20;;;;;;5042260;28;20037;-35
